createdAt,value
2019-05-15T00:00:32.677Z,9.0
2019-05-15T00:01:33.090Z,8.9
2019-05-15T00:02:34.441Z,8.9
2019-05-15T00:03:38.834Z,8.8
2019-05-15T00:04:38.324Z,8.7
2019-05-15T00:05:38.937Z,8.7
2019-05-15T00:06:39.725Z,8.6
2019-05-15T00:07:41.084Z,8.7
2019-05-15T00:08:42.446Z,8.5
2019-05-15T00:09:43.787Z,8.5
2019-05-15T00:10:45.136Z,8.6
2019-05-15T00:11:48.031Z,8.6
2019-05-15T00:12:48.607Z,8.4
2019-05-15T00:13:49.110Z,8.4
2019-05-15T00:14:50.460Z,8.3
2019-05-15T00:15:51.810Z,8.4
2019-05-15T00:16:53.157Z,8.3
2019-05-15T00:17:54.512Z,8.3
2019-05-15T00:18:55.861Z,8.2
2019-05-15T00:19:58.219Z,8.1
2019-05-15T00:20:59.476Z,8.1
2019-05-15T00:21:59.842Z,8.0
2019-05-15T00:23:01.210Z,8.0
2019-05-15T00:24:02.576Z,8.0
2019-05-15T00:25:03.901Z,7.9
2019-05-15T00:26:05.256Z,7.9
2019-05-15T00:27:08.036Z,7.9
2019-05-15T00:28:09.374Z,7.9
2019-05-15T00:29:15.117Z,7.9
2019-05-15T00:30:10.548Z,7.9
2019-05-15T00:31:11.981Z,7.8
2019-05-15T00:32:13.328Z,7.9
2019-05-15T00:33:14.696Z,7.8
2019-05-15T00:34:18.110Z,7.8
2019-05-15T00:35:18.426Z,7.8
2019-05-15T00:36:19.252Z,7.8
2019-05-15T00:37:19.971Z,7.6
2019-05-15T00:38:21.351Z,7.7
2019-05-15T00:39:22.708Z,7.7
2019-05-15T00:40:24.058Z,7.6
2019-05-15T00:41:25.406Z,7.6
2019-05-15T00:42:28.359Z,7.7
2019-05-15T00:43:29.085Z,7.6
2019-05-15T00:44:29.373Z,7.5
2019-05-15T00:45:30.722Z,7.6
2019-05-15T00:46:32.091Z,7.5
2019-05-15T00:47:33.433Z,7.5
2019-05-15T00:48:34.781Z,7.5
2019-05-15T00:49:38.086Z,7.5
2019-05-15T00:50:38.761Z,7.5
2019-05-15T00:51:38.988Z,7.5
2019-05-15T00:52:40.062Z,7.5
2019-05-15T00:53:41.430Z,7.5
2019-05-15T00:54:42.784Z,7.5
2019-05-15T00:55:44.127Z,7.5
2019-05-15T00:56:45.483Z,7.4
2019-05-15T00:57:48.436Z,7.3
2019-05-15T00:58:48.277Z,7.4
2019-05-15T00:59:49.452Z,7.4
2019-05-15T01:00:50.800Z,7.4
2019-05-15T01:01:52.141Z,7.4
2019-05-15T01:02:53.497Z,7.4
2019-05-15T01:03:54.846Z,7.2
2019-05-15T01:04:58.181Z,7.2
2019-05-15T01:05:58.609Z,7.2
2019-05-15T01:06:58.970Z,7.2
2019-05-15T01:08:00.128Z,7.2
2019-05-15T01:09:01.481Z,7.2
2019-05-15T01:10:42.348Z,7.2
2019-05-15T01:11:43.688Z,7.2
2019-05-15T01:12:45.043Z,7.1
2019-05-15T01:13:48.047Z,7.0
2019-05-15T01:14:49.017Z,7.0
2019-05-15T01:15:49.184Z,7.1
2019-05-15T01:16:50.318Z,7.1
2019-05-15T01:17:51.659Z,7.1
2019-05-15T01:18:53.017Z,7.0
2019-05-15T01:19:54.356Z,7.0
2019-05-15T01:20:55.704Z,7.0
2019-05-15T01:21:58.549Z,7.0
2019-05-15T01:22:59.157Z,7.0
2019-05-15T01:23:59.788Z,7.0
2019-05-15T01:25:01.137Z,7.0
2019-05-15T01:26:02.488Z,6.9
2019-05-15T01:27:03.843Z,7.0
2019-05-15T01:28:05.193Z,6.8
2019-05-15T01:29:08.899Z,6.9
2019-05-15T01:30:08.941Z,6.9
2019-05-15T01:31:09.163Z,6.9
2019-05-15T01:32:10.512Z,6.8
2019-05-15T01:33:11.858Z,6.7
2019-05-15T01:34:13.222Z,6.6
2019-05-15T01:35:14.567Z,6.7
2019-05-15T01:36:15.921Z,6.6
2019-05-15T01:37:18.826Z,6.6
2019-05-15T01:38:18.898Z,6.7
2019-05-15T01:39:19.978Z,6.6
2019-05-15T01:40:21.327Z,6.5
2019-05-15T01:41:22.677Z,6.6
2019-05-15T01:42:24.014Z,6.5
2019-05-15T01:43:25.367Z,6.5
2019-05-15T01:44:28.548Z,6.4
2019-05-15T01:45:28.593Z,6.4
2019-05-15T01:46:29.349Z,6.5
2019-05-15T01:47:30.696Z,6.4
2019-05-15T01:48:32.038Z,6.4
2019-05-15T01:49:33.388Z,6.4
2019-05-15T01:50:34.741Z,6.4
2019-05-15T01:51:38.367Z,6.4
2019-05-15T01:52:39.084Z,6.3
2019-05-15T01:53:38.774Z,6.3
2019-05-15T01:54:40.034Z,6.3
2019-05-15T01:55:41.373Z,6.3
2019-05-15T01:56:42.723Z,6.3
2019-05-15T01:57:44.063Z,6.1
2019-05-15T01:58:45.407Z,6.2
2019-05-15T01:59:55.655Z,6.2
2019-05-15T02:00:48.370Z,6.2
2019-05-15T02:01:49.376Z,6.3
2019-05-15T02:02:50.716Z,6.5
2019-05-15T02:03:52.075Z,6.5
2019-05-15T02:04:53.419Z,6.5
2019-05-15T02:05:54.879Z,6.5
2019-05-15T02:06:58.737Z,6.5
2019-05-15T02:07:58.498Z,6.5
2019-05-15T02:08:58.987Z,6.5
2019-05-15T02:10:00.337Z,6.5
2019-05-15T02:11:01.688Z,6.4
2019-05-15T02:12:03.043Z,6.4
2019-05-15T02:13:04.382Z,6.4
2019-05-15T02:14:08.095Z,6.3
2019-05-15T02:15:08.539Z,6.3
2019-05-15T02:16:08.559Z,6.2
2019-05-15T02:17:09.664Z,6.1
2019-05-15T02:18:11.222Z,6.2
2019-05-15T02:19:12.570Z,6.1
2019-05-15T02:20:13.912Z,6.1
2019-05-15T02:21:15.257Z,6.1
2019-05-15T02:22:18.775Z,6.1
2019-05-15T02:23:18.893Z,6.1
2019-05-15T02:24:19.225Z,6.1
2019-05-15T02:25:20.574Z,6.1
2019-05-15T02:26:21.920Z,6.0
2019-05-15T02:27:23.278Z,6.0
2019-05-15T02:28:24.615Z,6.0
2019-05-15T02:29:28.386Z,6.0
2019-05-15T02:30:30.157Z,6.0
2019-05-15T02:31:30.204Z,6.1
2019-05-15T02:32:30.268Z,6.0
2019-05-15T02:33:31.355Z,6.0
2019-05-15T02:34:32.714Z,6.0
2019-05-15T02:35:34.053Z,6.0
2019-05-15T02:36:35.393Z,5.9
2019-05-15T02:37:40.341Z,5.9
2019-05-15T02:38:40.833Z,5.9
2019-05-15T02:39:39.372Z,5.9
2019-05-15T02:40:41.124Z,5.9
2019-05-15T02:41:42.025Z,5.8
2019-05-15T02:42:43.378Z,5.8
2019-05-15T02:43:44.773Z,5.8
2019-05-15T02:44:46.109Z,5.8
2019-05-15T02:45:50.422Z,5.8
2019-05-15T02:46:49.907Z,5.7
2019-05-15T02:47:50.088Z,5.8
2019-05-15T02:48:51.435Z,5.7
2019-05-15T02:49:52.794Z,5.7
2019-05-15T02:50:54.145Z,5.7
2019-05-15T02:51:55.484Z,5.7
2019-05-15T02:53:00.278Z,5.6
2019-05-15T02:53:58.553Z,5.7
2019-05-15T02:54:59.914Z,5.6
2019-05-15T02:56:00.764Z,5.6
2019-05-15T02:57:02.120Z,5.7
2019-05-15T02:58:03.460Z,5.6
2019-05-15T02:59:04.809Z,5.6
2019-05-15T03:00:06.154Z,5.6
2019-05-15T03:01:09.319Z,5.6
2019-05-15T03:02:10.218Z,5.6
2019-05-15T03:03:10.189Z,5.5
2019-05-15T03:04:11.535Z,5.5
2019-05-15T03:05:12.889Z,5.5
2019-05-15T03:06:14.240Z,5.5
2019-05-15T03:07:18.978Z,5.5
2019-05-15T03:08:19.567Z,5.5
2019-05-15T03:09:18.836Z,5.4
2019-05-15T03:10:19.945Z,5.4
2019-05-15T03:11:20.917Z,5.4
2019-05-15T03:12:22.272Z,5.4
2019-05-15T03:13:23.625Z,5.4
2019-05-15T03:14:24.961Z,5.5
2019-05-15T03:15:28.905Z,5.4
2019-05-15T03:16:30.404Z,5.4
2019-05-15T03:17:29.642Z,5.4
2019-05-15T03:18:30.248Z,5.3
2019-05-15T03:19:31.597Z,5.3
2019-05-15T03:20:32.942Z,5.3
2019-05-15T03:21:34.300Z,5.3
2019-05-15T03:22:35.649Z,5.3
2019-05-15T03:23:40.017Z,5.4
2019-05-15T03:24:39.561Z,5.4
2019-05-15T03:25:40.382Z,5.3
2019-05-15T03:26:40.937Z,5.4
2019-05-15T03:27:42.286Z,5.5
2019-05-15T03:28:43.633Z,5.6
2019-05-15T03:29:45.165Z,5.8
2019-05-15T03:32:01.209Z,5.7
2019-05-15T03:32:55.735Z,5.7
2019-05-15T03:33:54.085Z,5.7
2019-05-15T03:34:56.218Z,5.7
2019-05-15T03:35:54.282Z,5.6
2019-05-15T03:36:54.497Z,5.7
2019-05-15T03:37:55.848Z,5.7
2019-05-15T03:38:58.698Z,5.6
2019-05-15T03:39:59.656Z,5.6
2019-05-15T03:40:59.894Z,5.6
2019-05-15T03:42:01.187Z,5.5
2019-05-15T03:43:02.535Z,5.6
2019-05-15T03:44:03.878Z,5.6
2019-05-15T03:45:05.259Z,5.6
2019-05-15T03:46:08.942Z,5.6
2019-05-15T03:47:09.213Z,5.6
2019-05-15T03:48:09.589Z,5.6
2019-05-15T03:49:10.521Z,5.7
2019-05-15T03:50:11.867Z,5.6
2019-05-15T03:51:13.225Z,5.6
2019-05-15T03:52:14.585Z,5.6
2019-05-15T03:53:18.958Z,5.6
2019-05-15T03:54:18.965Z,5.6
2019-05-15T03:55:18.679Z,5.7
2019-05-15T03:56:19.877Z,5.6
2019-05-15T03:57:23.161Z,5.6
2019-05-15T03:58:22.698Z,5.6
2019-05-15T03:59:24.055Z,5.7
2019-05-15T04:00:25.408Z,5.7
2019-05-15T04:01:35.777Z,5.7
2019-05-15T04:02:28.738Z,5.7
2019-05-15T04:03:30.155Z,5.7
2019-05-15T04:04:30.711Z,5.7
2019-05-15T04:05:32.070Z,5.8
2019-05-15T04:06:33.405Z,6.0
2019-05-15T04:07:34.760Z,6.2
2019-05-15T04:08:38.882Z,6.3
2019-05-15T04:09:38.706Z,6.3
2019-05-15T04:10:39.957Z,6.3
2019-05-15T04:11:40.060Z,6.3
2019-05-15T04:12:41.408Z,6.2
2019-05-15T04:13:42.766Z,6.2
2019-05-15T04:14:44.123Z,6.2
2019-05-15T04:15:45.475Z,6.1
2019-05-15T04:16:49.391Z,6.1
2019-05-15T04:17:49.283Z,6.1
2019-05-15T04:18:49.493Z,6.1
2019-05-15T04:19:50.821Z,6.1
2019-05-15T04:20:52.179Z,6.1
2019-05-15T04:21:53.543Z,6.1
2019-05-15T04:22:54.891Z,6.1
2019-05-15T04:23:58.596Z,6.2
2019-05-15T04:24:59.181Z,6.2
2019-05-15T04:25:59.043Z,6.1
2019-05-15T04:27:00.230Z,6.1
2019-05-15T04:28:01.590Z,6.1
2019-05-15T04:29:02.929Z,6.1
2019-05-15T04:30:04.283Z,6.2
2019-05-15T04:31:05.645Z,6.3
2019-05-15T04:32:10.128Z,6.3
2019-05-15T04:33:09.587Z,6.3
2019-05-15T04:34:09.653Z,6.3
2019-05-15T04:35:11.007Z,6.4
2019-05-15T04:36:12.357Z,6.3
2019-05-15T04:37:13.706Z,6.5
2019-05-15T04:38:15.066Z,6.4
2019-05-15T04:39:19.082Z,6.4
2019-05-15T04:40:19.367Z,6.3
2019-05-15T04:41:19.735Z,6.3
2019-05-15T04:42:20.562Z,6.3
2019-05-15T04:43:21.706Z,6.2
2019-05-15T04:44:23.052Z,6.4
2019-05-15T04:45:24.416Z,6.4
2019-05-15T04:46:25.768Z,6.5
2019-05-15T04:47:29.952Z,6.5
2019-05-15T04:48:28.952Z,6.4
2019-05-15T04:49:29.765Z,6.4
2019-05-15T04:50:31.112Z,6.4
2019-05-15T04:51:32.464Z,6.4
2019-05-15T04:52:33.821Z,6.4
2019-05-15T04:53:39.052Z,6.3
2019-05-15T04:54:39.919Z,6.3
2019-05-15T04:55:40.408Z,6.4
2019-05-15T04:56:39.971Z,6.3
2019-05-15T04:57:40.955Z,6.2
2019-05-15T04:58:41.863Z,6.3
2019-05-15T04:59:43.206Z,6.3
2019-05-15T05:00:44.559Z,6.3
2019-05-15T05:01:45.908Z,6.4
2019-05-15T05:02:49.507Z,6.4
2019-05-15T05:03:49.649Z,6.3
2019-05-15T05:04:49.896Z,6.4
2019-05-15T05:05:51.244Z,6.4
2019-05-15T05:06:52.603Z,6.5
2019-05-15T05:07:53.953Z,6.5
2019-05-15T05:08:55.318Z,6.5
2019-05-15T05:09:59.427Z,6.5
2019-05-15T05:10:59.255Z,6.5
2019-05-15T05:11:59.310Z,6.5
2019-05-15T05:13:00.666Z,6.6
2019-05-15T05:14:02.016Z,6.5
2019-05-15T05:15:03.372Z,6.7
2019-05-15T05:16:04.718Z,6.7
2019-05-15T05:17:08.799Z,6.8
2019-05-15T05:18:09.478Z,6.8
2019-05-15T05:19:08.951Z,6.9
2019-05-15T05:20:10.037Z,6.9
2019-05-15T05:21:11.497Z,6.8
2019-05-15T05:22:12.861Z,7.0
2019-05-15T05:23:14.207Z,7.0
2019-05-15T05:24:15.567Z,7.1
2019-05-15T05:25:18.293Z,7.1
2019-05-15T05:26:18.632Z,7.2
2019-05-15T05:27:19.554Z,7.2
2019-05-15T05:28:20.911Z,7.2
2019-05-15T05:29:22.266Z,7.4
2019-05-15T05:30:23.617Z,7.5
2019-05-15T05:31:24.966Z,7.6
2019-05-15T05:32:31.978Z,7.6
2019-05-15T05:33:28.618Z,7.6
2019-05-15T05:34:28.953Z,7.6
2019-05-15T05:35:30.308Z,7.7
2019-05-15T05:36:31.658Z,7.7
2019-05-15T05:37:33.011Z,7.7
2019-05-15T05:38:34.361Z,7.7
2019-05-15T05:39:35.717Z,7.7
2019-05-15T05:40:38.429Z,7.7
2019-05-15T05:41:39.164Z,7.6
2019-05-15T05:42:39.703Z,7.6
2019-05-15T05:43:41.054Z,7.7
2019-05-15T05:44:42.756Z,7.6
2019-05-15T05:45:43.721Z,7.7
2019-05-15T05:46:45.077Z,7.7
2019-05-15T05:47:48.583Z,7.9
2019-05-15T05:48:48.977Z,8.0
2019-05-15T05:49:49.137Z,8.2
2019-05-15T05:50:50.499Z,8.5
2019-05-15T05:51:51.843Z,8.6
2019-05-15T05:52:53.201Z,8.9
2019-05-15T05:53:54.558Z,9.0
2019-05-15T05:54:57.997Z,9.2
2019-05-15T05:55:58.021Z,9.3
2019-05-15T05:56:58.708Z,9.4
2019-05-15T05:57:59.903Z,9.6
2019-05-15T05:59:01.263Z,9.7
2019-05-15T06:00:02.618Z,9.8
2019-05-15T06:01:03.998Z,10.0
2019-05-15T06:02:07.976Z,10.0
2019-05-15T06:03:08.718Z,10.1
2019-05-15T06:04:08.046Z,10.2
2019-05-15T06:05:09.374Z,10.3
2019-05-15T06:06:10.737Z,10.5
2019-05-15T06:07:14.318Z,10.7
2019-05-15T06:08:13.422Z,10.9
2019-05-15T06:09:14.779Z,11.0
2019-05-15T06:10:18.170Z,11.0
2019-05-15T06:11:18.429Z,11.0
2019-05-15T06:12:19.034Z,11.2
2019-05-15T06:13:20.144Z,11.3
2019-05-15T06:14:21.502Z,11.3
2019-05-15T06:15:22.868Z,11.3
2019-05-15T06:16:24.267Z,11.4
2019-05-15T06:17:27.954Z,11.4
2019-05-15T06:18:28.121Z,11.4
2019-05-15T06:19:30.993Z,11.6
2019-05-15T06:20:29.631Z,11.7
2019-05-15T06:21:30.989Z,11.9
2019-05-15T06:22:32.359Z,11.9
2019-05-15T06:23:35.609Z,11.9
2019-05-15T06:24:35.051Z,11.8
2019-05-15T06:25:38.919Z,11.8
2019-05-15T06:26:38.612Z,11.9
2019-05-15T06:27:39.349Z,11.9
2019-05-15T06:28:40.422Z,12.0
2019-05-15T06:29:41.799Z,12.1
2019-05-15T06:30:43.164Z,12.3
2019-05-15T06:31:44.533Z,12.3
2019-05-15T06:33:01.863Z,12.5
2019-05-15T06:33:48.862Z,12.7
2019-05-15T06:34:48.664Z,12.6
2019-05-15T06:35:49.978Z,12.6
2019-05-15T06:36:51.342Z,12.7
2019-05-15T06:37:52.714Z,12.7
2019-05-15T06:38:54.097Z,12.6
2019-05-15T06:39:55.460Z,12.6
2019-05-15T06:40:58.280Z,12.7
2019-05-15T06:41:58.859Z,12.8
2019-05-15T06:42:59.532Z,12.7
2019-05-15T06:44:01.012Z,12.8
2019-05-15T06:45:02.379Z,12.9
2019-05-15T06:46:03.765Z,13.0
2019-05-15T06:47:05.124Z,13.0
2019-05-15T06:48:09.281Z,13.1
2019-05-15T06:49:08.480Z,13.2
2019-05-15T06:50:09.165Z,13.2
2019-05-15T06:51:10.540Z,13.3
2019-05-15T06:52:11.899Z,13.4
2019-05-15T06:53:13.281Z,13.4
2019-05-15T06:54:14.634Z,13.2
2019-05-15T06:55:18.192Z,13.2
2019-05-15T06:56:18.777Z,13.2
2019-05-15T06:57:18.685Z,13.3
2019-05-15T06:58:20.156Z,13.3
2019-05-15T06:59:21.383Z,13.3
2019-05-15T07:00:22.760Z,13.4
2019-05-15T07:01:24.119Z,13.4
2019-05-15T07:02:25.498Z,13.5
2019-05-15T07:03:29.216Z,13.6
2019-05-15T07:04:28.810Z,13.5
2019-05-15T07:05:29.611Z,13.6
2019-05-15T07:06:30.882Z,13.6
2019-05-15T07:07:32.265Z,13.7
2019-05-15T07:08:33.643Z,13.5
2019-05-15T07:09:35.013Z,13.6
2019-05-15T07:11:15.907Z,13.7
2019-05-15T07:12:18.633Z,13.8
2019-05-15T07:13:18.626Z,13.8
2019-05-15T07:14:19.963Z,13.7
2019-05-15T07:15:21.340Z,13.8
2019-05-15T07:16:22.723Z,13.9
2019-05-15T07:17:24.228Z,13.8
2019-05-15T07:18:28.159Z,13.8
2019-05-15T07:19:28.406Z,13.7
2019-05-15T07:20:28.530Z,13.7
2019-05-15T07:21:29.616Z,13.8
2019-05-15T07:22:30.987Z,13.7
2019-05-15T07:23:32.348Z,13.7
2019-05-15T07:24:33.776Z,13.7
2019-05-15T07:25:35.143Z,13.7
2019-05-15T07:26:38.974Z,13.8
2019-05-15T07:27:38.966Z,14.0
2019-05-15T07:28:39.189Z,13.9
2019-05-15T07:29:40.566Z,14.0
2019-05-15T07:30:41.940Z,14.1
2019-05-15T07:31:43.335Z,14.2
2019-05-15T07:32:44.703Z,14.3
2019-05-15T07:33:48.845Z,14.3
2019-05-15T07:34:48.374Z,14.4
2019-05-15T07:35:49.221Z,14.4
2019-05-15T07:36:50.105Z,14.2
2019-05-15T07:37:51.503Z,14.0
2019-05-15T07:38:52.865Z,14.1
2019-05-15T07:39:54.241Z,14.1
2019-05-15T07:40:59.990Z,14.0
2019-05-15T07:41:57.854Z,13.9
2019-05-15T07:42:58.523Z,13.8
2019-05-15T07:43:59.639Z,13.8
2019-05-15T07:45:01.027Z,13.9
2019-05-15T07:46:02.399Z,14.1
2019-05-15T07:47:03.825Z,14.1
2019-05-15T07:48:05.192Z,14.2
2019-05-15T07:49:08.869Z,14.2
2019-05-15T07:50:08.694Z,14.2
2019-05-15T07:51:11.638Z,14.2
2019-05-15T07:52:10.739Z,14.2
2019-05-15T07:53:12.106Z,14.0
2019-05-15T07:54:13.484Z,13.9
2019-05-15T07:55:14.866Z,13.8
2019-05-15T07:56:17.987Z,13.8
2019-05-15T07:57:19.349Z,13.8
2019-05-15T07:58:21.471Z,13.7
2019-05-15T07:59:20.306Z,13.8
2019-05-15T08:00:21.755Z,13.7
2019-05-15T08:01:23.155Z,13.8
2019-05-15T08:02:24.561Z,14.0
2019-05-15T08:03:25.925Z,14.1
2019-05-15T08:04:30.581Z,14.3
2019-05-15T08:05:28.640Z,14.4
2019-05-15T08:06:30.009Z,14.5
2019-05-15T08:07:31.388Z,14.7
2019-05-15T08:08:32.759Z,14.8
2019-05-15T08:09:34.122Z,14.7
2019-05-15T08:10:35.497Z,14.7
2019-05-15T08:11:38.860Z,14.8
2019-05-15T08:12:39.262Z,14.7
2019-05-15T08:13:39.606Z,14.6
2019-05-15T08:14:40.979Z,14.5
2019-05-15T08:15:42.349Z,14.4
2019-05-15T08:16:43.731Z,14.4
2019-05-15T08:18:00.284Z,14.4
2019-05-15T08:18:48.254Z,14.4
2019-05-15T08:19:48.699Z,14.4
2019-05-15T08:20:49.338Z,14.6
2019-05-15T08:21:51.796Z,14.7
2019-05-15T08:22:51.795Z,14.8
2019-05-15T08:23:53.174Z,14.9
2019-05-15T08:24:54.549Z,15.0
2019-05-15T08:25:57.742Z,15.1
2019-05-15T08:26:58.114Z,15.2
2019-05-15T08:27:58.775Z,15.2
2019-05-15T08:29:00.000Z,15.3
2019-05-15T08:30:01.385Z,15.2
2019-05-15T08:31:03.096Z,15.1
2019-05-15T08:32:04.154Z,15.1
2019-05-15T08:33:05.532Z,15.1
2019-05-15T08:34:15.201Z,15.1
2019-05-15T08:35:08.233Z,15.1
2019-05-15T08:36:09.616Z,15.1
2019-05-15T08:37:10.997Z,15.3
2019-05-15T08:38:14.246Z,15.3
2019-05-15T08:39:13.718Z,15.4
2019-05-15T08:40:15.096Z,15.5
2019-05-15T08:41:18.346Z,15.6
2019-05-15T08:42:18.817Z,15.4
2019-05-15T08:43:19.171Z,15.0
2019-05-15T08:44:20.537Z,14.8
2019-05-15T08:45:21.913Z,14.7
2019-05-15T08:46:23.295Z,14.7
2019-05-15T08:47:24.687Z,14.7
2019-05-15T08:48:27.684Z,14.8
2019-05-15T08:49:28.349Z,14.9
2019-05-15T08:50:28.849Z,14.9
2019-05-15T08:51:30.101Z,15.0
2019-05-15T08:52:31.484Z,15.0
2019-05-15T08:53:32.878Z,15.2
2019-05-15T08:54:34.299Z,15.1
2019-05-15T08:55:35.701Z,15.2
2019-05-15T08:56:39.133Z,15.4
2019-05-15T08:57:38.561Z,15.6
2019-05-15T08:58:39.754Z,15.7
2019-05-15T08:59:41.121Z,15.7
2019-05-15T09:00:44.069Z,15.8
2019-05-15T09:01:43.847Z,15.6
2019-05-15T09:02:45.226Z,15.5
2019-05-15T09:03:48.673Z,15.4
2019-05-15T09:04:48.703Z,15.3
2019-05-15T09:05:49.308Z,15.2
2019-05-15T09:06:50.731Z,15.1
2019-05-15T09:07:52.045Z,15.1
2019-05-15T09:08:53.411Z,14.9
2019-05-15T09:09:54.781Z,14.8
2019-05-15T09:10:58.590Z,15.0
2019-05-15T09:11:58.499Z,14.9
2019-05-15T09:12:58.856Z,15.0
2019-05-15T09:14:00.252Z,14.9
2019-05-15T09:15:01.635Z,14.9
2019-05-15T09:16:02.998Z,14.9
2019-05-15T09:17:04.393Z,14.9
2019-05-15T09:18:14.734Z,15.1
2019-05-15T09:19:08.344Z,15.1
2019-05-15T09:20:08.463Z,15.2
2019-05-15T09:21:09.844Z,15.3
2019-05-15T09:22:11.209Z,15.4
2019-05-15T09:23:12.585Z,15.4
2019-05-15T09:24:13.967Z,15.4
2019-05-15T09:25:15.342Z,15.4
2019-05-15T09:26:19.229Z,15.4
2019-05-15T09:27:18.502Z,15.4
2019-05-15T09:28:19.679Z,15.4
2019-05-15T09:29:20.775Z,15.4
2019-05-15T09:30:22.162Z,15.6
2019-05-15T09:31:23.547Z,15.7
2019-05-15T09:32:24.928Z,15.7
2019-05-15T09:33:28.428Z,15.5
2019-05-15T09:34:44.925Z,15.5
2019-05-15T09:35:29.009Z,15.5
2019-05-15T09:36:30.381Z,15.5
2019-05-15T09:37:33.621Z,15.6
2019-05-15T09:38:33.103Z,15.5
2019-05-15T09:39:34.479Z,15.6
2019-05-15T09:40:45.184Z,15.7
2019-05-15T09:41:38.054Z,15.6
2019-05-15T09:42:39.009Z,15.7
2019-05-15T09:43:42.195Z,15.6
2019-05-15T09:44:41.252Z,15.6
2019-05-15T09:45:42.632Z,15.7
2019-05-15T09:46:44.002Z,15.8
2019-05-15T09:47:48.102Z,15.8
2019-05-15T09:48:51.250Z,15.9
2019-05-15T09:49:48.470Z,16.0
2019-05-15T09:50:49.669Z,16.0
2019-05-15T09:51:50.787Z,15.9
2019-05-15T09:52:52.178Z,15.7
2019-05-15T09:53:53.542Z,15.7
2019-05-15T09:54:54.919Z,15.6
2019-05-15T09:55:56.307Z,15.4
2019-05-15T09:56:58.515Z,15.6
2019-05-15T09:57:59.215Z,15.7
2019-05-15T09:59:00.383Z,15.8
2019-05-15T10:00:01.763Z,16.1
2019-05-15T10:01:03.152Z,16.2
2019-05-15T10:02:04.528Z,16.2
2019-05-15T10:03:05.916Z,16.1
2019-05-15T10:04:08.314Z,16.1
2019-05-15T10:05:11.222Z,16.0
2019-05-15T10:06:10.005Z,16.2
2019-05-15T10:07:11.373Z,16.1
2019-05-15T10:08:12.752Z,16.0
2019-05-15T10:09:14.214Z,16.1
2019-05-15T10:10:15.598Z,16.0
2019-05-15T10:11:19.313Z,16.0
2019-05-15T10:12:18.399Z,16.0
2019-05-15T10:13:19.697Z,16.0
2019-05-15T10:14:21.080Z,16.1
2019-05-15T10:15:22.485Z,16.4
2019-05-15T10:16:23.857Z,16.5
2019-05-15T10:17:25.239Z,16.5
2019-05-15T10:18:28.216Z,16.5
2019-05-15T10:19:29.040Z,16.5
2019-05-15T10:20:29.331Z,16.5
2019-05-15T10:21:32.554Z,16.5
2019-05-15T10:22:32.048Z,16.6
2019-05-15T10:23:33.429Z,16.6
2019-05-15T10:24:34.808Z,16.7
2019-05-15T10:25:36.198Z,16.6
2019-05-15T10:26:39.287Z,16.4
2019-05-15T10:27:39.753Z,16.4
2019-05-15T10:28:40.333Z,16.4
2019-05-15T10:29:41.607Z,16.4
2019-05-15T10:30:42.993Z,16.4
2019-05-15T10:31:44.376Z,16.3
2019-05-15T10:32:48.472Z,16.3
2019-05-15T10:33:48.949Z,16.2
2019-05-15T10:34:48.479Z,16.2
2019-05-15T10:35:49.877Z,16.2
2019-05-15T10:36:51.244Z,16.2
2019-05-15T10:37:52.629Z,16.1
2019-05-15T10:38:54.050Z,16.1
2019-05-15T10:39:55.388Z,16.2
2019-05-15T10:41:08.106Z,16.3
2019-05-15T10:41:58.280Z,16.4
2019-05-15T10:42:59.664Z,16.4
2019-05-15T10:44:01.052Z,16.4
2019-05-15T10:45:02.425Z,16.4
2019-05-15T10:46:03.878Z,16.4
2019-05-15T10:47:05.242Z,16.5
2019-05-15T10:48:09.156Z,16.6
2019-05-15T10:49:08.632Z,16.8
2019-05-15T10:50:09.326Z,16.8
2019-05-15T10:51:10.697Z,16.5
2019-05-15T10:52:12.077Z,16.3
2019-05-15T10:53:13.458Z,16.2
2019-05-15T10:54:14.833Z,16.1
2019-05-15T10:55:18.814Z,16.2
2019-05-15T10:56:18.565Z,16.2
2019-05-15T10:57:19.061Z,16.4
2019-05-15T10:58:22.224Z,16.4
2019-05-15T10:59:21.591Z,16.5
2019-05-15T11:00:22.964Z,16.5
2019-05-15T11:01:24.344Z,16.6
2019-05-15T11:02:25.721Z,16.5
2019-05-15T11:03:29.629Z,16.5
2019-05-15T11:04:28.797Z,16.2
2019-05-15T11:05:41.049Z,16.0
2019-05-15T11:06:31.132Z,16.0
2019-05-15T11:07:32.502Z,15.8
2019-05-15T11:08:33.884Z,15.9
2019-05-15T11:09:37.549Z,16.0
2019-05-15T11:10:41.513Z,16.1
2019-05-15T11:11:37.961Z,16.2
2019-05-15T11:12:39.343Z,16.1
2019-05-15T11:13:40.800Z,16.2
2019-05-15T11:14:42.179Z,16.2
2019-05-15T11:15:43.546Z,16.2
2019-05-15T11:16:44.888Z,16.2
2019-05-15T11:17:48.976Z,16.2
2019-05-15T11:18:48.177Z,16.1
2019-05-15T11:19:49.911Z,16.2
2019-05-15T11:20:50.365Z,16.3
2019-05-15T11:21:51.744Z,16.5
2019-05-15T11:22:53.121Z,16.7
2019-05-15T11:23:54.499Z,16.7
2019-05-15T11:24:55.883Z,16.7
2019-05-15T11:25:58.082Z,16.5
2019-05-15T11:26:59.440Z,16.3
2019-05-15T11:27:59.940Z,16.4
2019-05-15T11:29:01.327Z,16.4
2019-05-15T11:30:02.708Z,16.4
2019-05-15T11:31:04.083Z,16.3
2019-05-15T11:32:05.496Z,16.3
2019-05-15T11:33:09.315Z,16.2
2019-05-15T11:34:09.312Z,16.1
2019-05-15T11:35:09.530Z,16.0
2019-05-15T11:36:10.908Z,16.0
2019-05-15T11:37:12.294Z,16.1
2019-05-15T11:38:16.379Z,16.2
2019-05-15T11:39:15.030Z,16.3
2019-05-15T11:40:18.690Z,16.4
2019-05-15T11:41:19.227Z,16.4
2019-05-15T11:42:20.313Z,16.6
2019-05-15T11:43:20.457Z,16.5
2019-05-15T11:44:21.818Z,16.5
2019-05-15T11:45:23.196Z,16.5
2019-05-15T11:46:25.835Z,16.4
2019-05-15T11:47:27.770Z,16.5
2019-05-15T11:48:29.600Z,16.6
2019-05-15T11:49:29.057Z,16.7
2019-05-15T11:50:30.010Z,16.7
2019-05-15T11:51:31.367Z,16.7
2019-05-15T11:52:36.303Z,16.8
2019-05-15T11:53:34.101Z,16.8
2019-05-15T11:54:35.485Z,16.9
2019-05-15T11:55:38.455Z,17.1
2019-05-15T11:56:39.130Z,17.1
2019-05-15T11:57:46.789Z,17.1
2019-05-15T11:58:40.927Z,17.3
2019-05-15T11:59:44.617Z,17.3
2019-05-15T12:00:43.663Z,17.4
2019-05-15T12:01:45.033Z,17.4
2019-05-15T12:02:46.420Z,17.3
2019-05-15T12:03:47.891Z,17.4
2019-05-15T12:04:49.268Z,17.5
2019-05-15T12:05:50.646Z,17.6
2019-05-15T12:06:59.798Z,17.6
2019-05-15T12:07:53.375Z,17.5
2019-05-15T12:08:54.753Z,17.6
2019-05-15T12:09:57.954Z,17.5
2019-05-15T12:10:59.233Z,17.2
2019-05-15T12:11:58.819Z,17.1
2019-05-15T12:13:00.224Z,17.0
2019-05-15T12:14:01.606Z,17.1
2019-05-15T12:15:03.067Z,17.3
2019-05-15T12:16:04.328Z,17.2
2019-05-15T12:17:12.464Z,17.2
2019-05-15T12:18:08.845Z,17.3
2019-05-15T12:19:13.551Z,17.3
2019-05-15T12:20:10.729Z,17.4
2019-05-15T12:21:11.195Z,17.4
2019-05-15T12:22:12.575Z,17.3
2019-05-15T12:23:13.958Z,17.1
2019-05-15T12:24:15.343Z,17.1
2019-05-15T12:25:16.734Z,17.1
2019-05-15T12:26:18.122Z,16.9
2019-05-15T12:27:19.495Z,16.7
2019-05-15T12:28:20.881Z,16.7
2019-05-15T12:29:22.253Z,16.5
2019-05-15T12:30:23.641Z,16.6
2019-05-15T12:31:25.015Z,16.5
2019-05-15T12:32:33.180Z,16.5
2019-05-15T12:33:29.067Z,16.4
2019-05-15T12:34:29.085Z,16.3
2019-05-15T12:35:30.455Z,16.3
2019-05-15T12:36:50.778Z,16.3
2019-05-15T12:37:33.176Z,16.4
2019-05-15T12:38:34.560Z,16.3
2019-05-15T12:39:35.937Z,16.2
2019-05-15T13:00:19.358Z,16.9
2019-05-15T13:01:21.844Z,16.8
2019-05-15T13:02:22.076Z,16.6
2019-05-15T13:03:23.455Z,16.5
2019-05-15T13:04:24.838Z,16.6
2019-05-15T13:05:28.534Z,16.6
2019-05-15T13:06:28.551Z,16.7
2019-05-15T13:07:28.887Z,16.8
2019-05-15T13:08:30.293Z,16.9
2019-05-15T13:09:31.674Z,17.0
2019-05-15T13:10:33.052Z,17.1
2019-05-15T13:12:13.989Z,16.8
2019-05-15T13:13:15.341Z,16.5
2019-05-15T13:14:18.720Z,16.5
2019-05-15T13:15:18.946Z,16.6
2019-05-15T13:16:19.391Z,16.7
2019-05-15T13:17:20.765Z,16.9
2019-05-15T13:18:22.149Z,17.0
2019-05-15T13:19:23.521Z,17.2
2019-05-15T13:20:24.935Z,17.2
2019-05-15T13:21:26.307Z,17.3
2019-05-15T13:22:28.135Z,17.2
2019-05-15T13:23:29.074Z,17.3
2019-05-15T13:24:30.445Z,17.5
2019-05-15T13:25:31.833Z,17.6
2019-05-15T13:26:33.268Z,17.8
2019-05-15T13:27:35.125Z,17.8
2019-05-15T13:28:36.511Z,18.0
2019-05-15T13:29:37.905Z,18.1
2019-05-15T13:30:41.573Z,18.1
2019-05-15T13:31:40.621Z,18.1
2019-05-15T13:32:42.012Z,18.1
2019-05-15T13:33:43.386Z,17.7
2019-05-15T13:34:44.761Z,17.6
2019-05-15T13:35:48.478Z,17.5
2019-05-15T13:36:48.544Z,17.5
2019-05-15T13:37:49.442Z,17.3
2019-05-15T13:38:50.261Z,17.3
2019-05-15T13:39:51.650Z,17.4
2019-05-15T13:40:53.026Z,17.5
2019-05-15T13:41:54.408Z,17.5
2019-05-15T13:42:55.778Z,17.5
2019-05-15T13:43:58.361Z,17.5
2019-05-15T13:44:58.748Z,17.5
2019-05-15T13:45:59.888Z,17.7
2019-05-15T13:47:01.270Z,17.8
2019-05-15T13:48:02.672Z,17.9
2019-05-15T13:49:04.118Z,18.0
2019-05-15T13:50:07.779Z,18.0
2019-05-15T13:51:06.956Z,17.9
2019-05-15T13:52:08.559Z,17.9
2019-05-15T13:53:10.934Z,17.9
2019-05-15T13:54:11.047Z,17.9
2019-05-15T13:55:12.441Z,17.8
2019-05-15T13:56:13.816Z,17.5
2019-05-15T13:57:15.191Z,17.5
2019-05-15T13:58:16.572Z,17.5
2019-05-15T13:59:17.952Z,17.8
2019-05-15T14:00:19.343Z,17.9
2019-05-15T14:01:20.747Z,17.9
2019-05-15T14:02:22.159Z,17.9
2019-05-15T14:03:23.521Z,18.0
2019-05-15T14:04:24.904Z,18.1
2019-05-15T14:05:29.453Z,18.1
2019-05-15T14:06:28.696Z,18.1
2019-05-15T14:07:37.719Z,18.2
2019-05-15T14:08:30.399Z,18.2
2019-05-15T14:09:33.697Z,18.3
2019-05-15T14:10:33.161Z,18.2
2019-05-15T14:11:34.541Z,17.9